sensor_id;sensor_type;location;lat;lon;timestamp;P1;durP1;ratioP1;P2;durP2;ratioP2
39896;SDS011;25567;48.276;14.242;2023-03-01T00:00:13;30.00;;;12.10;;
39896;SDS011;25567;48.276;14.242;2023-03-01T00:02:40;34.30;;;13.95;;
39896;SDS011;25567;48.276;14.242;2023-03-01T00:05:07;32.15;;;13.85;;
39896;SDS011;25567;48.276;14.242;2023-03-01T00:07:33;38.95;;;13.57;;
39896;SDS011;25567;48.276;14.242;2023-03-01T00:10:00;29.52;;;13.07;;
39896;SDS011;25567;48.276;14.242;2023-03-01T00:12:27;32.28;;;13.10;;
39896;SDS011;25567;48.276;14.242;2023-03-01T00:14:54;29.95;;;12.55;;
39896;SDS011;25567;48.276;14.242;2023-03-01T00:17:20;30.08;;;12.98;;
39896;SDS011;25567;48.276;14.242;2023-03-01T00:19:47;36.95;;;13.70;;
39896;SDS011;25567;48.276;14.242;2023-03-01T00:22:14;31.20;;;13.55;;
39896;SDS011;25567;48.276;14.242;2023-03-01T00:24:40;30.42;;;13.57;;
39896;SDS011;25567;48.276;14.242;2023-03-01T00:27:07;30.75;;;13.00;;
39896;SDS011;25567;48.276;14.242;2023-03-01T00:29:33;35.97;;;13.80;;
39896;SDS011;25567;48.276;14.242;2023-03-01T00:32:00;32.13;;;13.30;;
39896;SDS011;25567;48.276;14.242;2023-03-01T00:34:27;32.53;;;15.10;;
39896;SDS011;25567;48.276;14.242;2023-03-01T00:36:53;34.10;;;13.52;;
39896;SDS011;25567;48.276;14.242;2023-03-01T00:39:20;34.80;;;14.23;;
39896;SDS011;25567;48.276;14.242;2023-03-01T00:41:47;32.15;;;13.50;;
39896;SDS011;25567;48.276;14.242;2023-03-01T00:44:13;34.58;;;14.05;;
39896;SDS011;25567;48.276;14.242;2023-03-01T00:46:40;36.20;;;13.77;;
39896;SDS011;25567;48.276;14.242;2023-03-01T00:49:07;41.90;;;14.18;;
39896;SDS011;25567;48.276;14.242;2023-03-01T00:51:33;33.10;;;12.70;;
39896;SDS011;25567;48.276;14.242;2023-03-01T00:54:01;35.75;;;14.68;;
39896;SDS011;25567;48.276;14.242;2023-03-01T00:56:28;31.77;;;13.52;;
39896;SDS011;25567;48.276;14.242;2023-03-01T00:58:56;34.55;;;13.23;;
39896;SDS011;25567;48.276;14.242;2023-03-01T01:01:24;32.60;;;14.55;;
39896;SDS011;25567;48.276;14.242;2023-03-01T01:03:56;38.63;;;15.25;;
39896;SDS011;25567;48.276;14.242;2023-03-01T01:06:27;33.65;;;14.10;;
39896;SDS011;25567;48.276;14.242;2023-03-01T01:08:57;38.22;;;15.02;;
39896;SDS011;25567;48.276;14.242;2023-03-01T01:11:24;34.33;;;14.00;;
39896;SDS011;25567;48.276;14.242;2023-03-01T01:13:52;35.25;;;15.20;;
39896;SDS011;25567;48.276;14.242;2023-03-01T01:16:21;37.05;;;14.38;;
39896;SDS011;25567;48.276;14.242;2023-03-01T01:18:50;36.72;;;13.95;;
39896;SDS011;25567;48.276;14.242;2023-03-01T01:21:18;34.22;;;14.15;;
39896;SDS011;25567;48.276;14.242;2023-03-01T01:23:46;40.25;;;14.23;;
39896;SDS011;25567;48.276;14.242;2023-03-01T01:26:15;37.05;;;14.98;;
39896;SDS011;25567;48.276;14.242;2023-03-01T01:28:43;36.67;;;14.05;;
39896;SDS011;25567;48.276;14.242;2023-03-01T01:31:10;37.40;;;14.40;;
39896;SDS011;25567;48.276;14.242;2023-03-01T01:33:37;42.75;;;16.05;;
39896;SDS011;25567;48.276;14.242;2023-03-01T01:36:05;40.67;;;15.80;;
39896;SDS011;25567;48.276;14.242;2023-03-01T01:38:33;39.65;;;14.52;;
39896;SDS011;25567;48.276;14.242;2023-03-01T01:41:00;35.03;;;14.38;;
39896;SDS011;25567;48.276;14.242;2023-03-01T01:43:29;42.72;;;15.68;;
39896;SDS011;25567;48.276;14.242;2023-03-01T01:46:01;38.83;;;15.02;;
39896;SDS011;25567;48.276;14.242;2023-03-01T01:48:34;40.25;;;15.35;;
39896;SDS011;25567;48.276;14.242;2023-03-01T01:51:10;32.28;;;13.95;;
39896;SDS011;25567;48.276;14.242;2023-03-01T01:53:39;39.85;;;14.27;;
39896;SDS011;25567;48.276;14.242;2023-03-01T01:56:08;35.42;;;14.30;;
39896;SDS011;25567;48.276;14.242;2023-03-01T01:58:39;39.35;;;15.23;;
39896;SDS011;25567;48.276;14.242;2023-03-01T02:01:08;38.42;;;14.63;;
39896;SDS011;25567;48.276;14.242;2023-03-01T02:03:35;39.08;;;14.60;;
39896;SDS011;25567;48.276;14.242;2023-03-01T02:08:36;37.63;;;15.82;;
39896;SDS011;25567;48.276;14.242;2023-03-01T02:11:05;38.50;;;14.73;;
39896;SDS011;25567;48.276;14.242;2023-03-01T02:13:32;41.83;;;16.05;;
39896;SDS011;25567;48.276;14.242;2023-03-01T02:16:04;38.03;;;15.13;;
39896;SDS011;25567;48.276;14.242;2023-03-01T02:18:34;43.95;;;15.30;;
39896;SDS011;25567;48.276;14.242;2023-03-01T02:21:12;41.05;;;16.02;;
39896;SDS011;25567;48.276;14.242;2023-03-01T02:23:43;36.22;;;15.13;;
39896;SDS011;25567;48.276;14.242;2023-03-01T02:26:11;45.67;;;16.15;;
39896;SDS011;25567;48.276;14.242;2023-03-01T02:28:58;41.75;;;15.10;;
39896;SDS011;25567;48.276;14.242;2023-03-01T02:31:25;40.35;;;15.98;;
39896;SDS011;25567;48.276;14.242;2023-03-01T02:34:09;40.58;;;16.40;;
39896;SDS011;25567;48.276;14.242;2023-03-01T02:36:39;44.63;;;15.73;;
39896;SDS011;25567;48.276;14.242;2023-03-01T02:39:12;40.15;;;16.20;;
39896;SDS011;25567;48.276;14.242;2023-03-01T02:41:44;40.95;;;15.98;;
39896;SDS011;25567;48.276;14.242;2023-03-01T02:44:14;39.60;;;17.25;;
39896;SDS011;25567;48.276;14.242;2023-03-01T02:46:42;41.10;;;16.15;;
39896;SDS011;25567;48.276;14.242;2023-03-01T02:49:22;37.35;;;16.30;;
39896;SDS011;25567;48.276;14.242;2023-03-01T02:51:55;45.63;;;16.58;;
39896;SDS011;25567;48.276;14.242;2023-03-01T02:59:54;40.50;;;14.85;;
39896;SDS011;25567;48.276;14.242;2023-03-01T03:02:24;40.63;;;15.75;;
39896;SDS011;25567;48.276;14.242;2023-03-01T03:05:08;41.05;;;15.82;;
39896;SDS011;25567;48.276;14.242;2023-03-01T03:07:38;45.72;;;16.05;;
39896;SDS011;25567;48.276;14.242;2023-03-01T03:10:08;42.22;;;16.13;;
39896;SDS011;25567;48.276;14.242;2023-03-01T03:12:37;40.20;;;15.35;;
39896;SDS011;25567;48.276;14.242;2023-03-01T03:15:05;40.15;;;16.23;;
39896;SDS011;25567;48.276;14.242;2023-03-01T03:17:36;39.17;;;16.25;;
39896;SDS011;25567;48.276;14.242;2023-03-01T03:20:05;37.47;;;14.77;;
39896;SDS011;25567;48.276;14.242;2023-03-01T03:22:38;41.63;;;15.40;;
39896;SDS011;25567;48.276;14.242;2023-03-01T03:25:07;45.70;;;16.73;;
39896;SDS011;25567;48.276;14.242;2023-03-01T03:27:38;45.15;;;16.00;;
39896;SDS011;25567;48.276;14.242;2023-03-01T03:30:06;40.65;;;15.93;;
39896;SDS011;25567;48.276;14.242;2023-03-01T03:32:35;41.47;;;14.75;;
39896;SDS011;25567;48.276;14.242;2023-03-01T03:35:03;40.95;;;14.25;;
39896;SDS011;25567;48.276;14.242;2023-03-01T03:37:36;39.97;;;15.25;;
39896;SDS011;25567;48.276;14.242;2023-03-01T03:40:19;48.28;;;16.23;;
39896;SDS011;25567;48.276;14.242;2023-03-01T03:42:46;37.67;;;15.98;;
39896;SDS011;25567;48.276;14.242;2023-03-01T03:45:16;41.28;;;15.13;;
39896;SDS011;25567;48.276;14.242;2023-03-01T03:47:43;41.45;;;15.38;;
39896;SDS011;25567;48.276;14.242;2023-03-01T03:50:11;41.88;;;15.55;;
39896;SDS011;25567;48.276;14.242;2023-03-01T03:52:39;39.90;;;15.45;;
39896;SDS011;25567;48.276;14.242;2023-03-01T03:55:06;41.35;;;16.00;;
39896;SDS011;25567;48.276;14.242;2023-03-01T03:57:36;40.00;;;15.20;;
39896;SDS011;25567;48.276;14.242;2023-03-01T04:00:04;44.13;;;15.45;;
39896;SDS011;25567;48.276;14.242;2023-03-01T04:02:39;36.30;;;14.95;;
39896;SDS011;25567;48.276;14.242;2023-03-01T04:05:07;37.63;;;15.32;;
39896;SDS011;25567;48.276;14.242;2023-03-01T04:07:35;35.60;;;14.43;;
39896;SDS011;25567;48.276;14.242;2023-03-01T04:10:03;41.20;;;16.40;;
39896;SDS011;25567;48.276;14.242;2023-03-01T04:12:30;40.20;;;15.10;;
39896;SDS011;25567;48.276;14.242;2023-03-01T04:14:57;39.45;;;15.77;;
39896;SDS011;25567;48.276;14.242;2023-03-01T04:17:24;39.80;;;16.00;;
39896;SDS011;25567;48.276;14.242;2023-03-01T04:19:50;39.83;;;15.25;;
39896;SDS011;25567;48.276;14.242;2023-03-01T04:22:17;40.47;;;15.65;;
39896;SDS011;25567;48.276;14.242;2023-03-01T04:24:44;38.20;;;14.20;;
39896;SDS011;25567;48.276;14.242;2023-03-01T04:27:11;44.55;;;16.05;;
39896;SDS011;25567;48.276;14.242;2023-03-01T04:29:37;42.90;;;14.65;;
39896;SDS011;25567;48.276;14.242;2023-03-01T04:32:04;43.30;;;15.77;;
39896;SDS011;25567;48.276;14.242;2023-03-01T04:34:31;44.58;;;15.77;;
39896;SDS011;25567;48.276;14.242;2023-03-01T04:36:58;38.63;;;14.82;;
39896;SDS011;25567;48.276;14.242;2023-03-01T04:39:24;40.90;;;15.15;;
39896;SDS011;25567;48.276;14.242;2023-03-01T04:41:51;41.67;;;15.32;;
39896;SDS011;25567;48.276;14.242;2023-03-01T04:44:18;38.10;;;15.55;;
39896;SDS011;25567;48.276;14.242;2023-03-01T04:46:45;39.80;;;15.15;;
39896;SDS011;25567;48.276;14.242;2023-03-01T04:49:15;42.83;;;15.95;;
39896;SDS011;25567;48.276;14.242;2023-03-01T04:51:42;41.35;;;15.32;;
39896;SDS011;25567;48.276;14.242;2023-03-01T04:54:09;40.22;;;15.93;;
39896;SDS011;25567;48.276;14.242;2023-03-01T04:56:36;41.35;;;15.52;;
39896;SDS011;25567;48.276;14.242;2023-03-01T04:59:03;39.60;;;14.68;;
39896;SDS011;25567;48.276;14.242;2023-03-01T05:01:31;50.10;;;16.58;;
39896;SDS011;25567;48.276;14.242;2023-03-01T05:03:58;43.78;;;15.27;;
39896;SDS011;25567;48.276;14.242;2023-03-01T05:06:29;42.80;;;15.95;;
39896;SDS011;25567;48.276;14.242;2023-03-01T05:08:56;40.13;;;15.40;;
39896;SDS011;25567;48.276;14.242;2023-03-01T05:11:23;39.45;;;15.40;;
39896;SDS011;25567;48.276;14.242;2023-03-01T05:13:49;37.90;;;14.90;;
39896;SDS011;25567;48.276;14.242;2023-03-01T05:16:21;39.90;;;15.95;;
39896;SDS011;25567;48.276;14.242;2023-03-01T05:18:47;43.63;;;15.90;;
39896;SDS011;25567;48.276;14.242;2023-03-01T05:21:16;41.40;;;15.18;;
39896;SDS011;25567;48.276;14.242;2023-03-01T05:23:44;45.40;;;15.13;;
39896;SDS011;25567;48.276;14.242;2023-03-01T05:26:11;39.92;;;15.65;;
39896;SDS011;25567;48.276;14.242;2023-03-01T05:28:58;41.58;;;16.02;;
39896;SDS011;25567;48.276;14.242;2023-03-01T05:31:26;41.00;;;15.57;;
39896;SDS011;25567;48.276;14.242;2023-03-01T05:33:53;47.28;;;16.27;;
39896;SDS011;25567;48.276;14.242;2023-03-01T05:36:20;45.10;;;16.80;;
39896;SDS011;25567;48.276;14.242;2023-03-01T05:38:46;42.33;;;16.77;;
39896;SDS011;25567;48.276;14.242;2023-03-01T05:41:14;50.97;;;16.85;;
39896;SDS011;25567;48.276;14.242;2023-03-01T05:43:42;43.55;;;16.00;;
39896;SDS011;25567;48.276;14.242;2023-03-01T05:46:11;40.80;;;16.05;;
39896;SDS011;25567;48.276;14.242;2023-03-01T05:48:39;46.28;;;16.67;;
39896;SDS011;25567;48.276;14.242;2023-03-01T05:51:06;47.35;;;17.40;;
39896;SDS011;25567;48.276;14.242;2023-03-01T05:53:33;44.85;;;16.52;;
39896;SDS011;25567;48.276;14.242;2023-03-01T05:56:02;43.22;;;17.35;;
39896;SDS011;25567;48.276;14.242;2023-03-01T05:58:30;46.05;;;17.65;;
39896;SDS011;25567;48.276;14.242;2023-03-01T06:00:56;47.17;;;16.63;;
39896;SDS011;25567;48.276;14.242;2023-03-01T06:03:23;46.10;;;17.30;;
39896;SDS011;25567;48.276;14.242;2023-03-01T06:05:55;44.55;;;17.10;;
39896;SDS011;25567;48.276;14.242;2023-03-01T06:08:22;48.97;;;16.98;;
39896;SDS011;25567;48.276;14.242;2023-03-01T06:10:50;46.45;;;17.20;;
39896;SDS011;25567;48.276;14.242;2023-03-01T06:13:17;51.47;;;17.58;;
39896;SDS011;25567;48.276;14.242;2023-03-01T06:15:43;42.97;;;16.88;;
39896;SDS011;25567;48.276;14.242;2023-03-01T06:18:10;49.75;;;17.75;;
39896;SDS011;25567;48.276;14.242;2023-03-01T06:20:37;47.50;;;17.05;;
39896;SDS011;25567;48.276;14.242;2023-03-01T06:23:03;50.10;;;18.83;;
39896;SDS011;25567;48.276;14.242;2023-03-01T06:25:30;46.88;;;17.17;;
39896;SDS011;25567;48.276;14.242;2023-03-01T06:27:57;49.00;;;18.73;;
39896;SDS011;25567;48.276;14.242;2023-03-01T06:30:24;60.92;;;19.00;;
39896;SDS011;25567;48.276;14.242;2023-03-01T06:32:52;55.45;;;18.40;;
39896;SDS011;25567;48.276;14.242;2023-03-01T06:35:26;49.47;;;18.40;;
39896;SDS011;25567;48.276;14.242;2023-03-01T06:37:58;41.03;;;16.40;;
39896;SDS011;25567;48.276;14.242;2023-03-01T06:40:26;51.38;;;19.40;;
39896;SDS011;25567;48.276;14.242;2023-03-01T06:42:53;48.53;;;17.60;;
39896;SDS011;25567;48.276;14.242;2023-03-01T06:45:20;38.30;;;16.85;;
39896;SDS011;25567;48.276;14.242;2023-03-01T06:47:48;39.75;;;15.82;;
39896;SDS011;25567;48.276;14.242;2023-03-01T06:50:15;50.72;;;17.73;;
39896;SDS011;25567;48.276;14.242;2023-03-01T06:52:43;44.75;;;17.00;;
39896;SDS011;25567;48.276;14.242;2023-03-01T06:55:11;47.33;;;18.38;;
39896;SDS011;25567;48.276;14.242;2023-03-01T06:57:39;46.60;;;17.67;;
39896;SDS011;25567;48.276;14.242;2023-03-01T07:00:05;46.08;;;17.20;;
39896;SDS011;25567;48.276;14.242;2023-03-01T07:02:33;54.22;;;18.77;;
39896;SDS011;25567;48.276;14.242;2023-03-01T07:04:59;49.25;;;17.58;;
39896;SDS011;25567;48.276;14.242;2023-03-01T07:07:26;44.08;;;17.80;;
39896;SDS011;25567;48.276;14.242;2023-03-01T07:09:53;49.72;;;17.52;;
39896;SDS011;25567;48.276;14.242;2023-03-01T07:12:20;59.05;;;19.23;;
39896;SDS011;25567;48.276;14.242;2023-03-01T07:14:47;47.75;;;16.95;;
39896;SDS011;25567;48.276;14.242;2023-03-01T07:17:13;50.55;;;19.13;;
39896;SDS011;25567;48.276;14.242;2023-03-01T07:19:40;50.15;;;18.77;;
39896;SDS011;25567;48.276;14.242;2023-03-01T07:22:07;50.22;;;17.80;;
39896;SDS011;25567;48.276;14.242;2023-03-01T07:24:35;48.22;;;17.88;;
39896;SDS011;25567;48.276;14.242;2023-03-01T07:27:02;50.83;;;18.48;;
39896;SDS011;25567;48.276;14.242;2023-03-01T07:29:28;59.97;;;20.35;;
39896;SDS011;25567;48.276;14.242;2023-03-01T07:31:55;62.63;;;20.77;;
39896;SDS011;25567;48.276;14.242;2023-03-01T07:34:22;63.83;;;21.08;;
39896;SDS011;25567;48.276;14.242;2023-03-01T07:36:49;54.95;;;20.38;;
39896;SDS011;25567;48.276;14.242;2023-03-01T07:39:15;54.55;;;20.70;;
39896;SDS011;25567;48.276;14.242;2023-03-01T07:41:44;54.95;;;19.63;;
39896;SDS011;25567;48.276;14.242;2023-03-01T07:44:11;65.45;;;21.98;;
39896;SDS011;25567;48.276;14.242;2023-03-01T07:46:41;53.13;;;19.98;;
39896;SDS011;25567;48.276;14.242;2023-03-01T07:49:08;56.90;;;20.70;;
39896;SDS011;25567;48.276;14.242;2023-03-01T07:51:34;57.17;;;20.98;;
39896;SDS011;25567;48.276;14.242;2023-03-01T07:54:01;64.35;;;22.25;;
39896;SDS011;25567;48.276;14.242;2023-03-01T07:56:28;60.53;;;22.55;;
39896;SDS011;25567;48.276;14.242;2023-03-01T07:58:55;59.67;;;21.45;;
39896;SDS011;25567;48.276;14.242;2023-03-01T08:01:22;56.22;;;22.73;;
39896;SDS011;25567;48.276;14.242;2023-03-01T08:03:48;59.83;;;21.92;;
39896;SDS011;25567;48.276;14.242;2023-03-01T08:06:16;60.17;;;22.73;;
39896;SDS011;25567;48.276;14.242;2023-03-01T08:08:43;60.72;;;21.50;;
39896;SDS011;25567;48.276;14.242;2023-03-01T08:11:11;57.40;;;21.10;;
39896;SDS011;25567;48.276;14.242;2023-03-01T08:13:40;60.65;;;22.20;;
39896;SDS011;25567;48.276;14.242;2023-03-01T08:16:08;61.08;;;24.73;;
39896;SDS011;25567;48.276;14.242;2023-03-01T08:18:37;51.97;;;20.15;;
39896;SDS011;25567;48.276;14.242;2023-03-01T08:21:04;58.22;;;22.25;;
39896;SDS011;25567;48.276;14.242;2023-03-01T08:23:33;54.70;;;21.95;;
39896;SDS011;25567;48.276;14.242;2023-03-01T08:26:08;55.63;;;20.75;;
39896;SDS011;25567;48.276;14.242;2023-03-01T08:28:38;53.00;;;20.80;;
39896;SDS011;25567;48.276;14.242;2023-03-01T08:31:13;55.00;;;21.70;;
39896;SDS011;25567;48.276;14.242;2023-03-01T08:33:45;61.20;;;21.92;;
39896;SDS011;25567;48.276;14.242;2023-03-01T08:36:30;56.55;;;20.80;;
39896;SDS011;25567;48.276;14.242;2023-03-01T08:38:59;52.47;;;21.08;;
39896;SDS011;25567;48.276;14.242;2023-03-01T08:41:26;50.78;;;20.27;;
39896;SDS011;25567;48.276;14.242;2023-03-01T08:43:54;59.05;;;21.38;;
39896;SDS011;25567;48.276;14.242;2023-03-01T08:46:26;58.60;;;21.27;;
39896;SDS011;25567;48.276;14.242;2023-03-01T08:48:53;54.90;;;20.25;;
39896;SDS011;25567;48.276;14.242;2023-03-01T08:51:20;50.83;;;18.80;;
39896;SDS011;25567;48.276;14.242;2023-03-01T08:53:48;49.58;;;20.15;;
39896;SDS011;25567;48.276;14.242;2023-03-01T08:56:15;38.30;;;16.63;;
39896;SDS011;25567;48.276;14.242;2023-03-01T08:58:43;47.60;;;18.33;;
39896;SDS011;25567;48.276;14.242;2023-03-01T09:01:12;54.83;;;19.10;;
39896;SDS011;25567;48.276;14.242;2023-03-01T09:03:41;48.30;;;16.98;;
39896;SDS011;25567;48.276;14.242;2023-03-01T09:06:08;42.97;;;15.65;;
39896;SDS011;25567;48.276;14.242;2023-03-01T09:08:37;41.25;;;15.95;;
39896;SDS011;25567;48.276;14.242;2023-03-01T09:11:05;45.47;;;17.40;;
39896;SDS011;25567;48.276;14.242;2023-03-01T09:13:34;42.45;;;15.85;;
39896;SDS011;25567;48.276;14.242;2023-03-01T09:16:01;33.95;;;15.45;;
39896;SDS011;25567;48.276;14.242;2023-03-01T09:18:30;43.83;;;16.00;;
39896;SDS011;25567;48.276;14.242;2023-03-01T09:23:42;34.45;;;15.07;;
39896;SDS011;25567;48.276;14.242;2023-03-01T09:26:11;37.03;;;15.80;;
39896;SDS011;25567;48.276;14.242;2023-03-01T09:28:39;37.85;;;14.70;;
39896;SDS011;25567;48.276;14.242;2023-03-01T09:31:07;41.58;;;16.45;;
39896;SDS011;25567;48.276;14.242;2023-03-01T09:33:34;43.53;;;16.17;;
39896;SDS011;25567;48.276;14.242;2023-03-01T09:36:03;37.70;;;15.40;;
39896;SDS011;25567;48.276;14.242;2023-03-01T09:38:32;42.08;;;16.00;;
39896;SDS011;25567;48.276;14.242;2023-03-01T09:40:59;45.03;;;16.52;;
39896;SDS011;25567;48.276;14.242;2023-03-01T09:46:22;41.00;;;15.48;;
39896;SDS011;25567;48.276;14.242;2023-03-01T09:48:54;40.22;;;16.38;;
39896;SDS011;25567;48.276;14.242;2023-03-01T09:51:26;35.53;;;15.00;;
39896;SDS011;25567;48.276;14.242;2023-03-01T09:53:56;35.95;;;15.25;;
39896;SDS011;25567;48.276;14.242;2023-03-01T09:56:44;36.13;;;14.43;;
39896;SDS011;25567;48.276;14.242;2023-03-01T10:07:17;33.97;;;13.48;;
39896;SDS011;25567;48.276;14.242;2023-03-01T10:09:47;34.00;;;12.75;;
39896;SDS011;25567;48.276;14.242;2023-03-01T10:12:16;32.45;;;13.15;;
39896;SDS011;25567;48.276;14.242;2023-03-01T10:20:28;29.45;;;11.32;;
39896;SDS011;25567;48.276;14.242;2023-03-01T10:23:00;27.40;;;10.48;;
39896;SDS011;25567;48.276;14.242;2023-03-01T10:25:44;27.65;;;11.90;;
39896;SDS011;25567;48.276;14.242;2023-03-01T10:28:25;25.33;;;11.32;;
39896;SDS011;25567;48.276;14.242;2023-03-01T10:30:57;22.77;;;10.43;;
39896;SDS011;25567;48.276;14.242;2023-03-01T10:33:27;32.00;;;10.68;;
39896;SDS011;25567;48.276;14.242;2023-03-01T10:35:57;23.45;;;10.38;;
39896;SDS011;25567;48.276;14.242;2023-03-01T10:38:27;23.40;;;10.27;;
39896;SDS011;25567;48.276;14.242;2023-03-01T10:40:59;27.63;;;10.98;;
39896;SDS011;25567;48.276;14.242;2023-03-01T10:49:12;27.77;;;10.60;;
39896;SDS011;25567;48.276;14.242;2023-03-01T10:51:42;23.05;;;10.07;;
39896;SDS011;25567;48.276;14.242;2023-03-01T10:57:00;25.92;;;10.43;;
39896;SDS011;25567;48.276;14.242;2023-03-01T10:59:30;22.27;;;9.80;;
39896;SDS011;25567;48.276;14.242;2023-03-01T11:07:48;26.02;;;9.77;;
39896;SDS011;25567;48.276;14.242;2023-03-01T11:10:18;21.58;;;9.75;;
39896;SDS011;25567;48.276;14.242;2023-03-01T11:12:46;20.15;;;9.43;;
39896;SDS011;25567;48.276;14.242;2023-03-01T11:15:22;21.85;;;8.90;;
39896;SDS011;25567;48.276;14.242;2023-03-01T11:17:52;23.15;;;8.93;;
39896;SDS011;25567;48.276;14.242;2023-03-01T11:20:35;22.92;;;9.15;;
39896;SDS011;25567;48.276;14.242;2023-03-01T11:23:04;19.38;;;8.75;;
39896;SDS011;25567;48.276;14.242;2023-03-01T11:25:36;21.88;;;8.85;;
39896;SDS011;25567;48.276;14.242;2023-03-01T11:28:06;26.52;;;9.90;;
39896;SDS011;25567;48.276;14.242;2023-03-01T11:30:48;23.75;;;9.10;;
39896;SDS011;25567;48.276;14.242;2023-03-01T11:33:44;25.95;;;9.52;;
39896;SDS011;25567;48.276;14.242;2023-03-01T11:38:42;20.33;;;9.40;;
39896;SDS011;25567;48.276;14.242;2023-03-01T11:43:47;22.52;;;9.32;;
39896;SDS011;25567;48.276;14.242;2023-03-01T11:49:13;25.48;;;9.13;;
39896;SDS011;25567;48.276;14.242;2023-03-01T11:54:44;22.67;;;9.38;;
39896;SDS011;25567;48.276;14.242;2023-03-01T12:02:56;23.05;;;9.10;;
39896;SDS011;25567;48.276;14.242;2023-03-01T12:05:38;22.67;;;8.52;;
39896;SDS011;25567;48.276;14.242;2023-03-01T12:08:33;19.73;;;8.75;;
39896;SDS011;25567;48.276;14.242;2023-03-01T12:11:20;21.45;;;8.95;;
39896;SDS011;25567;48.276;14.242;2023-03-01T12:19:08;23.70;;;8.80;;
39896;SDS011;25567;48.276;14.242;2023-03-01T12:24:51;24.70;;;9.88;;
39896;SDS011;25567;48.276;14.242;2023-03-01T12:33:40;21.92;;;8.95;;
39896;SDS011;25567;48.276;14.242;2023-03-01T12:39:04;20.50;;;8.80;;
39896;SDS011;25567;48.276;14.242;2023-03-01T12:44:15;23.88;;;8.95;;
39896;SDS011;25567;48.276;14.242;2023-03-01T12:49:33;29.33;;;9.20;;
39896;SDS011;25567;48.276;14.242;2023-03-01T12:55:02;23.58;;;8.25;;
39896;SDS011;25567;48.276;14.242;2023-03-01T12:57:56;21.88;;;9.18;;
39896;SDS011;25567;48.276;14.242;2023-03-01T13:03:40;23.58;;;8.70;;
39896;SDS011;25567;48.276;14.242;2023-03-01T13:15:24;27.15;;;9.70;;
39896;SDS011;25567;48.276;14.242;2023-03-01T13:17:52;27.52;;;9.75;;
39896;SDS011;25567;48.276;14.242;2023-03-01T13:20:27;29.17;;;10.55;;
39896;SDS011;25567;48.276;14.242;2023-03-01T13:23:00;29.67;;;10.10;;
39896;SDS011;25567;48.276;14.242;2023-03-01T13:25:31;27.05;;;9.90;;
39896;SDS011;25567;48.276;14.242;2023-03-01T13:28:35;26.70;;;10.70;;
39896;SDS011;25567;48.276;14.242;2023-03-01T13:30:54;24.75;;;9.90;;
39896;SDS011;25567;48.276;14.242;2023-03-01T13:33:59;26.58;;;10.95;;
39896;SDS011;25567;48.276;14.242;2023-03-01T13:38:56;27.65;;;9.88;;
39896;SDS011;25567;48.276;14.242;2023-03-01T13:44:20;28.42;;;10.05;;
39896;SDS011;25567;48.276;14.242;2023-03-01T13:49:26;24.48;;;10.55;;
39896;SDS011;25567;48.276;14.242;2023-03-01T13:54:59;29.02;;;10.30;;
39896;SDS011;25567;48.276;14.242;2023-03-01T13:57:30;31.17;;;10.52;;
39896;SDS011;25567;48.276;14.242;2023-03-01T14:00:00;26.65;;;10.68;;
39896;SDS011;25567;48.276;14.242;2023-03-01T14:02:27;28.88;;;11.13;;
39896;SDS011;25567;48.276;14.242;2023-03-01T14:05:01;26.13;;;10.30;;
39896;SDS011;25567;48.276;14.242;2023-03-01T14:07:28;30.60;;;10.73;;
39896;SDS011;25567;48.276;14.242;2023-03-01T14:09:57;24.15;;;10.63;;
39896;SDS011;25567;48.276;14.242;2023-03-01T14:15:33;23.38;;;9.88;;
39896;SDS011;25567;48.276;14.242;2023-03-01T14:20:52;27.38;;;9.95;;
39896;SDS011;25567;48.276;14.242;2023-03-01T14:23:21;27.75;;;10.63;;
39896;SDS011;25567;48.276;14.242;2023-03-01T14:25:53;27.05;;;9.77;;
39896;SDS011;25567;48.276;14.242;2023-03-01T14:28:24;28.98;;;10.60;;
39896;SDS011;25567;48.276;14.242;2023-03-01T14:30:54;24.17;;;9.40;;
39896;SDS011;25567;48.276;14.242;2023-03-01T14:38:29;26.33;;;10.20;;
39896;SDS011;25567;48.276;14.242;2023-03-01T14:41:11;22.05;;;9.55;;
39896;SDS011;25567;48.276;14.242;2023-03-01T14:43:46;29.52;;;10.13;;
39896;SDS011;25567;48.276;14.242;2023-03-01T14:46:17;28.55;;;10.07;;
39896;SDS011;25567;48.276;14.242;2023-03-01T14:48:49;29.10;;;10.13;;
39896;SDS011;25567;48.276;14.242;2023-03-01T14:51:17;28.05;;;10.30;;
39896;SDS011;25567;48.276;14.242;2023-03-01T14:53:44;26.17;;;9.25;;
39896;SDS011;25567;48.276;14.242;2023-03-01T14:56:16;25.90;;;10.25;;
39896;SDS011;25567;48.276;14.242;2023-03-01T14:58:45;25.88;;;9.88;;
39896;SDS011;25567;48.276;14.242;2023-03-01T15:01:14;25.33;;;9.43;;
39896;SDS011;25567;48.276;14.242;2023-03-01T15:03:44;24.17;;;10.02;;
39896;SDS011;25567;48.276;14.242;2023-03-01T15:06:14;28.05;;;10.55;;
39896;SDS011;25567;48.276;14.242;2023-03-01T15:08:46;25.25;;;10.18;;
39896;SDS011;25567;48.276;14.242;2023-03-01T15:11:19;30.50;;;10.98;;
39896;SDS011;25567;48.276;14.242;2023-03-01T15:13:48;28.63;;;10.55;;
39896;SDS011;25567;48.276;14.242;2023-03-01T15:16:16;26.45;;;10.70;;
39896;SDS011;25567;48.276;14.242;2023-03-01T15:18:49;27.67;;;10.50;;
39896;SDS011;25567;48.276;14.242;2023-03-01T15:21:20;24.17;;;10.57;;
39896;SDS011;25567;48.276;14.242;2023-03-01T15:23:50;28.38;;;10.45;;
39896;SDS011;25567;48.276;14.242;2023-03-01T15:26:24;24.10;;;10.13;;
39896;SDS011;25567;48.276;14.242;2023-03-01T15:28:57;33.10;;;10.68;;
39896;SDS011;25567;48.276;14.242;2023-03-01T15:31:26;28.55;;;10.38;;
39896;SDS011;25567;48.276;14.242;2023-03-01T15:36:59;27.25;;;10.13;;
39896;SDS011;25567;48.276;14.242;2023-03-01T15:45:09;30.60;;;10.50;;
39896;SDS011;25567;48.276;14.242;2023-03-01T15:47:47;22.58;;;10.40;;
39896;SDS011;25567;48.276;14.242;2023-03-01T15:50:23;28.30;;;10.07;;
39896;SDS011;25567;48.276;14.242;2023-03-01T15:52:53;25.33;;;9.98;;
39896;SDS011;25567;48.276;14.242;2023-03-01T15:55:23;26.63;;;10.02;;
39896;SDS011;25567;48.276;14.242;2023-03-01T15:58:00;26.77;;;9.82;;
39896;SDS011;25567;48.276;14.242;2023-03-01T16:00:30;29.17;;;10.10;;
39896;SDS011;25567;48.276;14.242;2023-03-01T16:02:56;36.92;;;12.05;;
39896;SDS011;25567;48.276;14.242;2023-03-01T16:07:51;27.52;;;10.60;;
39896;SDS011;25567;48.276;14.242;2023-03-01T16:10:19;21.23;;;10.05;;
39896;SDS011;25567;48.276;14.242;2023-03-01T16:12:46;28.38;;;10.75;;
39896;SDS011;25567;48.276;14.242;2023-03-01T16:15:15;31.70;;;10.45;;
39896;SDS011;25567;48.276;14.242;2023-03-01T16:17:46;24.95;;;10.32;;
39896;SDS011;25567;48.276;14.242;2023-03-01T16:20:13;26.95;;;10.60;;
39896;SDS011;25567;48.276;14.242;2023-03-01T16:22:53;28.90;;;12.15;;
39896;SDS011;25567;48.276;14.242;2023-03-01T16:25:20;29.90;;;11.55;;
39896;SDS011;25567;48.276;14.242;2023-03-01T16:27:48;28.20;;;12.27;;
39896;SDS011;25567;48.276;14.242;2023-03-01T16:30:17;35.15;;;13.50;;
39896;SDS011;25567;48.276;14.242;2023-03-01T16:32:46;33.78;;;13.82;;
39896;SDS011;25567;48.276;14.242;2023-03-01T16:35:16;39.00;;;13.68;;